Time;durP1;ratioP1;P1;durP2;ratioP2;P2;SDS_P1;SDS_P2;PMS_P1;PMS_P2;Temp;Humidity;BMP_temperature;BMP_pressure;BME280_temperature;BME280_humidity;BME280_pressure;Samples;Min_cycle;Max_cycle;Signal;HPM_P1;HPM_P2
2022/09/14 00:01:14;;;;;;;2.70;2.50;;;;;;;19.63;56.21;99341.50;5052256;28;20220;-67
2022/09/14 00:03:42;;;;;;;5.50;3.03;;;;;;;19.61;56.37;99324.81;5051273;28;20192;-66
2022/09/14 00:06:11;;;;;;;3.17;2.90;;;;;;;19.59;56.40;99335.00;5051414;28;20224;-67
2022/09/14 00:08:38;;;;;;;2.50;2.40;;;;;;;19.56;56.33;99335.56;5051485;28;20232;-66
2022/09/14 00:11:06;;;;;;;2.37;2.27;;;;;;;19.52;56.24;99329.06;5051404;28;20610;-67
2022/09/14 00:13:34;;;;;;;4.23;2.83;;;;;;;19.52;56.21;99339.81;5051612;28;20195;-66
2022/09/14 00:16:04;;;;;;;2.63;2.53;;;;;;;19.48;56.28;99333.34;5051859;28;20201;-66
2022/09/14 00:18:31;;;;;;;2.50;2.33;;;;;;;19.46;56.05;99343.53;5052125;28;20193;-66
2022/09/14 00:21:05;;;;;;;2.73;2.60;;;;;;;19.47;56.78;99339.75;5067851;28;20192;-66
2022/09/14 00:23:32;;;;;;;2.97;2.70;;;;;;;19.44;57.12;99341.09;5072228;28;20188;-66
2022/09/14 00:26:02;;;;;;;3.17;2.07;;;;;;;19.44;56.53;99345.69;5071541;28;20699;-66
2022/09/14 00:28:29;;;;;;;2.17;2.07;;;;;;;19.43;56.71;99346.72;5072027;28;20184;-66
2022/09/14 00:30:56;;;;;;;2.47;2.27;;;;;;;19.42;56.90;99339.72;5071892;28;20188;-66
2022/09/14 00:33:23;;;;;;;2.43;2.33;;;;;;;19.41;56.98;99343.50;5071503;28;20688;-66
2022/09/14 00:35:49;;;;;;;2.67;2.47;;;;;;;19.38;56.93;99341.31;5071633;28;20200;-66
2022/09/14 00:38:17;;;;;;;2.47;2.37;;;;;;;19.37;56.61;99339.69;5071143;28;20660;-67
2022/09/14 00:40:44;;;;;;;3.93;2.20;;;;;;;19.36;56.65;99340.78;5071509;28;20249;-66
2022/09/14 00:43:15;;;;;;;2.40;2.23;;;;;;;19.35;56.50;99331.03;5071921;28;20273;-67
2022/09/14 00:45:41;;;;;;;3.27;2.40;;;;;;;19.31;56.40;99338.00;5071660;28;20182;-66
2022/09/14 00:48:08;;;;;;;5.13;2.20;;;;;;;19.28;56.25;99330.47;5072034;28;20249;-67
2022/09/14 00:50:35;;;;;;;2.67;2.47;;;;;;;19.10;56.00;99346.94;5072889;28;20192;-67
2022/09/14 00:53:03;;;;;;;2.50;2.40;;;;;;;18.96;56.61;99340.34;5074382;28;20736;-67
2022/09/14 00:55:33;;;;;;;3.30;2.70;;;;;;;18.89;57.56;99337.03;5074661;28;20251;-68
2022/09/14 00:58:00;;;;;;;3.20;2.87;;;;;;;18.99;57.03;99345.22;5075456;28;20206;-67
2022/09/14 01:00:29;;;;;;;3.93;2.67;;;;;;;18.92;57.03;99350.00;5074572;28;20663;-67
2022/09/14 01:02:55;;;;;;;2.67;2.57;;;;;;;18.31;58.85;99347.59;5075432;28;20194;-67
2022/09/14 01:05:33;;;;;;;2.70;2.50;;;;;;;18.31;58.57;99353.81;5074889;28;20200;-67
2022/09/14 01:08:13;;;;;;;3.23;2.87;;;;;;;18.23;59.64;99342.66;5074779;28;20204;-66
2022/09/14 01:10:53;;;;;;;3.77;2.73;;;;;;;18.20;59.19;99348.53;5075035;28;20191;-67
2022/09/14 01:13:31;;;;;;;3.23;2.90;;;;;;;18.20;59.32;99343.16;5074601;28;20188;-67
2022/09/14 01:16:06;;;;;;;2.47;2.37;;;;;;;18.19;59.83;99342.34;5074726;28;20189;-67
2022/09/14 01:18:37;;;;;;;3.53;3.00;;;;;;;18.36;59.29;99339.63;5074823;28;20187;-67
2022/09/14 01:21:09;;;;;;;4.30;2.87;;;;;;;18.53;58.55;99345.75;5058535;28;20614;-67
2022/09/14 01:23:42;;;;;;;3.10;2.90;;;;;;;18.62;58.26;99336.19;5054532;28;20640;-67
2022/09/14 01:26:33;;;;;;;2.87;2.67;;;;;;;18.63;58.46;99335.13;5054457;28;20756;-67
2022/09/14 01:29:06;;;;;;;3.10;2.90;;;;;;;18.51;58.18;99334.44;5054175;28;20193;-67
2022/09/14 01:31:38;;;;;;;4.13;3.30;;;;;;;18.11;59.41;99336.56;5054559;28;20192;-66
2022/09/14 01:34:10;;;;;;;4.20;2.90;;;;;;;17.90;60.44;99334.66;5054156;28;20608;-66
2022/09/14 01:36:41;;;;;;;4.57;2.77;;;;;;;18.02;60.34;99338.06;5053954;28;20250;-67
2022/09/14 01:39:10;;;;;;;4.07;3.00;;;;;;;17.87;60.93;99335.16;5053947;28;20634;-66
2022/09/14 01:41:41;;;;;;;4.00;3.20;;;;;;;17.99;60.36;99343.94;5054241;28;20189;-66
2022/09/14 01:44:14;;;;;;;4.07;3.33;;;;;;;17.92;61.40;99349.47;5054406;28;20184;-67
2022/09/14 01:46:44;;;;;;;3.80;3.50;;;;;;;17.93;60.90;99328.81;5053747;28;20672;-66
2022/09/14 01:49:15;;;;;;;4.33;3.83;;;;;;;18.14;60.09;99349.53;5054147;28;20192;-66
2022/09/14 01:51:47;;;;;;;4.07;3.37;;;;;;;18.16;60.03;99350.06;5053700;28;20616;-66
2022/09/14 01:54:19;;;;;;;3.10;2.83;;;;;;;18.09;59.77;99344.09;5053699;28;20710;-67
2022/09/14 01:56:51;;;;;;;5.00;3.07;;;;;;;18.06;60.19;99350.78;5053786;28;20194;-67
2022/09/14 01:59:23;;;;;;;3.30;3.10;;;;;;;18.00;59.66;99341.00;5053859;28;20255;-66
2022/09/14 02:01:54;;;;;;;3.23;3.03;;;;;;;18.07;59.76;99340.81;5052935;28;20188;-66
2022/09/14 02:04:29;;;;;;;3.03;2.93;;;;;;;18.06;59.41;99349.94;5053801;28;20681;-67
2022/09/14 02:06:56;;;;;;;8.07;3.33;;;;;;;17.94;60.53;99341.16;5053640;28;20223;-68
2022/09/14 02:09:25;;;;;;;2.93;2.80;;;;;;;18.03;60.67;99337.00;5053802;28;20225;-69
2022/09/14 02:11:54;;;;;;;2.83;2.70;;;;;;;18.05;60.03;99342.94;5053184;28;20193;-67
2022/09/14 02:14:23;;;;;;;3.87;2.70;;;;;;;18.07;59.80;99346.19;5053296;28;20196;-67
2022/09/14 02:16:49;;;;;;;2.67;2.47;;;;;;;18.15;59.73;99343.09;5053050;28;20201;-67
2022/09/14 02:19:17;;;;;;;4.20;3.10;;;;;;;18.12;59.28;99348.94;5054426;28;20664;-67
2022/09/14 02:21:43;;;;;;;2.97;2.80;;;;;;;18.07;59.05;99352.41;5073380;28;20197;-67
2022/09/14 02:24:12;;;;;;;4.40;2.73;;;;;;;18.05;59.29;99353.72;5072803;28;20253;-68
2022/09/14 02:26:40;;;;;;;2.70;2.60;;;;;;;18.17;58.50;99346.34;5072555;28;20219;-68
2022/09/14 02:29:07;;;;;;;3.77;3.10;;;;;;;18.17;58.47;99349.03;5072546;28;20918;-66
2022/09/14 02:31:47;;;;;;;2.93;2.83;;;;;;;18.19;58.73;99346.91;5072688;28;20287;-66
2022/09/14 02:34:23;;;;;;;3.93;2.57;;;;;;;18.18;58.71;99345.28;5072507;28;20762;-67
2022/09/14 02:37:00;;;;;;;4.03;2.97;;;;;;;18.19;58.25;99354.97;5072653;28;20718;-67
2022/09/14 02:39:35;;;;;;;2.70;2.50;;;;;;;18.20;58.65;99351.22;5072860;28;20261;-67
2022/09/14 02:42:13;;;;;;;3.17;2.97;;;;;;;18.29;57.74;99365.88;5072616;28;20233;-67
2022/09/14 02:44:48;;;;;;;4.07;2.90;;;;;;;18.30;57.13;99367.50;5072687;28;20237;-68
2022/09/14 02:47:23;;;;;;;3.23;2.70;;;;;;;18.18;57.69;99364.91;5072894;28;20602;-68
2022/09/14 02:49:58;;;;;;;2.83;2.60;;;;;;;18.07;57.59;99362.31;5072593;28;20187;-67
2022/09/14 02:52:31;;;;;;;2.77;2.57;;;;;;;18.10;57.69;99351.09;5073353;28;20187;-68
2022/09/14 02:55:03;;;;;;;2.73;2.63;;;;;;;18.18;57.69;99364.91;5072488;28;20184;-67
2022/09/14 02:57:30;;;;;;;3.33;2.63;;;;;;;18.19;57.96;99363.84;5072911;28;20196;-67
2022/09/14 02:59:56;;;;;;;2.40;2.30;;;;;;;18.19;57.81;99361.16;5072847;28;20187;-66
2022/09/14 03:02:25;;;;;;;4.57;2.90;;;;;;;18.25;57.56;99360.16;5072370;28;20254;-67
2022/09/14 03:04:52;;;;;;;3.00;2.80;;;;;;;18.25;57.70;99359.38;5072518;28;20188;-66
2022/09/14 03:07:18;;;;;;;3.97;2.93;;;;;;;18.28;58.43;99364.22;5072594;28;20649;-67
2022/09/14 03:09:45;;;;;;;2.97;2.77;;;;;;;18.30;58.08;99356.75;5072244;28;20229;-67
2022/09/14 03:12:12;;;;;;;3.50;2.73;;;;;;;18.32;57.97;99354.59;5072095;28;20725;-66
2022/09/14 03:14:38;;;;;;;3.90;2.73;;;;;;;18.30;58.11;99356.75;5071945;28;20317;-67
2022/09/14 03:17:06;;;;;;;4.63;2.97;;;;;;;18.27;58.72;99357.22;5071496;28;20200;-67
2022/09/14 03:19:34;;;;;;;3.47;3.20;;;;;;;18.24;58.45;99360.41;5068197;28;20192;-67
2022/09/14 03:22:01;;;;;;;4.57;3.13;;;;;;;18.17;59.57;99354.41;5052110;28;20194;-67
2022/09/14 03:24:28;;;;;;;9.60;4.20;;;;;;;18.12;60.00;99359.69;5051949;28;20276;-67
2022/09/14 03:26:54;;;;;;;3.67;3.37;;;;;;;18.12;59.23;99360.53;5051473;28;20286;-67
2022/09/14 03:29:21;;;;;;;10.63;3.67;;;;;;;18.15;58.88;99364.59;5051218;28;20608;-67
2022/09/14 03:31:48;;;;;;;3.43;2.90;;;;;;;18.12;59.40;99362.38;5052269;28;20258;-67
2022/09/14 03:34:15;;;;;;;4.00;3.00;;;;;;;18.13;59.57;99355.97;5051700;28;20251;-68
2022/09/14 03:36:43;;;;;;;5.97;3.40;;;;;;;18.10;59.46;99359.16;5051459;28;20664;-67
2022/09/14 03:39:11;;;;;;;5.50;3.67;;;;;;;18.01;59.92;99357.94;5051132;28;20196;-67
2022/09/14 03:41:38;;;;;;;6.57;3.40;;;;;;;17.88;60.43;99358.28;5051833;28;20197;-67
2022/09/14 03:44:04;;;;;;;5.07;3.43;;;;;;;17.93;60.29;99361.06;5051449;28;20280;-66
2022/09/14 03:46:31;;;;;;;6.03;3.70;;;;;;;17.98;60.82;99364.63;5051851;28;20197;-66
2022/09/14 03:48:58;;;;;;;8.50;3.63;;;;;;;17.85;60.75;99364.16;5050944;28;20224;-67
2022/09/14 03:51:24;;;;;;;4.07;3.60;;;;;;;17.82;60.88;99359.25;5051432;28;20547;-67
2022/09/14 03:53:53;;;;;;;6.43;3.37;;;;;;;17.85;60.79;99364.94;5051566;28;20733;-67
2022/09/14 03:56:24;;;;;;;6.07;3.80;;;;;;;17.90;60.62;99365.06;5051153;28;20303;-68
2022/09/14 03:58:51;;;;;;;11.00;4.03;;;;;;;17.93;61.17;99364.53;5051433;28;20193;-68
2022/09/14 04:01:19;;;;;;;8.40;4.27;;;;;;;17.89;61.09;99360.72;5051342;28;20193;-68
2022/09/14 04:03:46;;;;;;;12.50;3.90;;;;;;;17.92;61.29;99359.44;5051656;28;20262;-67
2022/09/14 04:06:14;;;;;;;8.33;3.50;;;;;;;17.93;61.38;99361.84;5051386;28;20734;-65
2022/09/14 04:08:42;;;;;;;10.87;3.23;;;;;;;17.97;61.21;99367.56;5051043;28;20319;-65
2022/09/14 04:11:14;;;;;;;10.63;3.53;;;;;;;17.93;61.40;99363.75;5050961;28;20197;-66
2022/09/14 04:13:41;;;;;;;19.53;4.33;;;;;;;17.93;61.56;99366.44;5051857;28;20193;-66
2022/09/14 04:16:08;;;;;;;5.07;3.73;;;;;;;17.95;61.83;99369.66;5051007;28;20200;-66
2022/09/14 04:18:35;;;;;;;8.50;3.50;;;;;;;17.94;61.70;99368.88;5051027;28;20201;-66
2022/09/14 04:21:05;;;;;;;8.67;4.53;;;;;;;17.93;61.79;99361.84;5067574;28;20249;-67
2022/09/14 04:23:32;;;;;;;6.83;4.30;;;;;;;18.03;62.08;99363.88;5068553;28;20546;-66
2022/09/14 04:25:59;;;;;;;8.63;4.50;;;;;;;18.41;61.88;99374.66;5069116;28;20188;-67
2022/09/14 04:28:27;;;;;;;6.80;4.40;;;;;;;18.76;59.44;99359.78;5074778;28;20223;-67
2022/09/14 04:30:59;;;;;;;7.00;4.67;;;;;;;19.28;57.98;99376.25;5074492;28;20204;-67
2022/09/14 04:33:29;;;;;;;6.83;4.90;;;;;;;19.68;55.80;99379.28;5074876;28;20672;-67
2022/09/14 04:36:00;;;;;;;12.50;4.67;;;;;;;20.11;54.09;99374.53;5075187;28;20199;-68
2022/09/14 04:38:27;;;;;;;12.83;4.60;;;;;;;20.50;52.64;99375.81;5075248;28;20223;-67
2022/09/14 04:40:54;;;;;;;14.70;4.80;;;;;;;20.94;50.84;99381.69;5074703;28;20245;-68
2022/09/14 04:43:21;;;;;;;9.77;5.10;;;;;;;21.32;49.15;99378.56;5074090;28;20597;-69
2022/09/14 04:45:49;;;;;;;13.33;4.80;;;;;;;21.81;47.99;99382.38;5074586;28;20199;-67
2022/09/14 04:48:15;;;;;;;7.77;4.43;;;;;;;22.16;46.61;99390.44;5074539;28;20220;-67
2022/09/14 04:50:42;;;;;;;8.40;4.90;;;;;;;22.53;45.57;99385.53;5074424;28;20242;-67
2022/09/14 04:53:09;;;;;;;10.77;3.93;;;;;;;23.41;47.09;99398.13;5073955;28;20198;-65
2022/09/14 04:55:36;;;;;;;12.47;3.67;;;;;;;24.53;43.54;99400.38;5074199;28;20191;-65
2022/09/14 04:58:04;;;;;;;4.07;3.77;;;;;;;25.18;38.53;99406.16;5074384;28;20200;-65
2022/09/14 05:00:34;;;;;;;11.00;4.57;;;;;;;25.65;37.62;99403.28;5073593;28;20266;-64
2022/09/14 05:03:03;;;;;;;11.70;5.00;;;;;;;25.83;36.95;99397.81;5074543;28;20184;-64
2022/09/14 05:05:31;;;;;;;4.60;4.10;;;;;;;26.38;35.63;99407.75;5074501;28;20192;-64
2022/09/14 05:07:58;;;;;;;8.03;3.90;;;;;;;26.51;36.21;99406.97;5074073;28;20344;-63
2022/09/14 05:10:24;;;;;;;8.50;4.43;;;;;;;26.83;34.67;99401.44;5069536;28;20257;-66
2022/09/14 05:12:51;;;;;;;8.03;3.80;;;;;;;27.09;34.31;99405.25;5077485;28;20625;-64
2022/09/14 05:15:18;;;;;;;12.57;4.10;;;;;;;27.49;35.00;99403.56;5074926;28;20249;-64
2022/09/14 05:17:44;;;;;;;6.47;3.40;;;;;;;28.10;34.32;99403.72;5074302;28;20667;-63
2022/09/14 05:20:12;;;;;;;9.50;4.20;;;;;;;28.31;32.33;99404.81;5074788;28;20261;-63
2022/09/14 05:22:39;;;;;;;12.37;3.53;;;;;;;28.42;32.31;99406.19;5074548;28;20192;-67
2022/09/14 05:25:07;;;;;;;5.97;3.70;;;;;;;28.66;32.93;99407.41;5072376;28;20199;-65
2022/09/14 05:27:34;;;;;;;8.60;4.30;;;;;;;29.04;31.45;99404.97;5072032;28;20270;-65
2022/09/14 05:30:00;;;;;;;19.07;4.50;;;;;;;29.28;30.83;99402.59;5072502;28;20192;-64
2022/09/14 05:32:27;;;;;;;6.80;4.07;;;;;;;29.62;30.51;99410.03;5073244;28;20655;-65
2022/09/14 05:34:54;;;;;;;7.30;4.90;;;;;;;29.77;29.83;99413.13;5074326;28;20200;-66
2022/09/14 05:37:22;;;;;;;10.20;4.70;;;;;;;29.93;29.77;99407.94;5072489;28;20226;-65
2022/09/14 05:39:49;;;;;;;9.83;4.43;;;;;;;30.17;29.26;99408.25;5072373;28;20664;-64
2022/09/14 05:42:16;;;;;;;12.67;4.17;;;;;;;30.23;29.32;99413.22;5073285;28;20245;-65
2022/09/14 05:44:42;;;;;;;7.20;3.93;;;;;;;30.32;28.76;99413.19;5068069;28;21947;-64
2022/09/14 05:47:09;;;;;;;6.07;3.80;;;;;;;30.40;28.87;99410.44;5053830;28;20200;-64
2022/09/14 05:49:36;;;;;;;9.00;4.97;;;;;;;30.66;27.83;99413.88;5053697;28;20624;-64
2022/09/14 05:52:03;;;;;;;5.47;3.90;;;;;;;30.66;27.84;99419.34;5053787;28;20262;-64
2022/09/14 05:54:31;;;;;;;7.17;3.90;;;;;;;30.18;28.56;99418.88;5053887;28;20193;-63
2022/09/14 05:56:58;;;;;;;47.87;6.77;;;;;;;30.47;28.41;99426.38;5053564;28;20314;-64
2022/09/14 05:59:24;;;;;;;24.33;5.43;;;;;;;30.57;27.80;99431.47;5054499;28;20621;-63
2022/09/14 06:01:51;;;;;;;10.47;4.10;;;;;;;30.47;28.13;99429.13;5053216;28;20200;-64
2022/09/14 06:04:18;;;;;;;13.90;4.40;;;;;;;30.37;28.19;99433.00;5053907;28;20617;-64
2022/09/14 06:06:44;;;;;;;11.53;4.00;;;;;;;30.31;28.48;99431.59;5053265;28;20250;-63
2022/09/14 06:09:11;;;;;;;10.27;3.70;;;;;;;30.20;28.98;99424.84;5053613;28;20615;-63
2022/09/14 06:11:39;;;;;;;9.77;3.57;;;;;;;30.18;29.12;99432.59;5052424;28;20253;-64
2022/09/14 06:14:06;;;;;;;12.17;3.47;;;;;;;30.20;28.88;99434.97;5053109;28;20197;-62
2022/09/14 06:16:33;;;;;;;5.50;3.10;;;;;;;30.15;28.61;99411.31;5052950;28;20291;-64
2022/09/14 06:19:00;;;;;;;12.37;3.77;;;;;;;30.33;29.11;99440.28;5045490;28;20258;-65
2022/09/14 06:21:29;;;;;;;13.50;4.33;;;;;;;30.27;29.09;99444.34;5063328;28;20208;-64
2022/09/14 06:23:56;;;;;;;11.13;3.90;;;;;;;30.46;28.94;99443.97;5069970;28;20660;-63
2022/09/14 06:26:24;;;;;;;7.43;3.57;;;;;;;30.35;29.10;99440.78;5059890;28;20633;-62
2022/09/14 06:28:52;;;;;;;7.03;3.27;;;;;;;30.28;27.78;99443.19;5060860;28;20219;-65
2022/09/14 06:31:21;;;;;;;5.40;2.73;;;;;;;30.38;28.17;99458.50;5071121;28;20185;-63
2022/09/14 06:33:49;;;;;;;8.67;3.43;;;;;;;30.50;27.68;99456.66;5071810;28;20245;-63
2022/09/14 06:36:18;;;;;;;4.00;2.70;;;;;;;30.52;28.42;99459.91;5053971;28;20491;-64
2022/09/14 06:38:46;;;;;;;3.10;2.80;;;;;;;30.55;27.93;99459.25;5071480;28;20192;-65
2022/09/14 06:41:16;;;;;;;5.73;2.87;;;;;;;30.43;28.22;99450.09;5072381;28;20732;-64
2022/09/14 06:43:44;;;;;;;4.67;3.07;;;;;;;30.00;28.56;99465.78;5060640;28;20191;-64
2022/09/14 06:46:14;;;;;;;9.47;2.80;;;;;;;29.99;29.03;99456.75;5065839;28;20254;-63
2022/09/14 06:48:44;;;;;;;3.43;3.17;;;;;;;30.05;29.25;99451.91;5071808;28;20273;-63
2022/09/14 06:51:13;;;;;;;6.53;3.63;;;;;;;30.23;28.83;99456.25;5073036;28;20199;-65
2022/09/14 06:53:40;;;;;;;7.17;3.00;;;;;;;30.18;28.40;99460.00;5072367;28;20223;-63
2022/09/14 06:56:07;;;;;;;8.67;2.63;;;;;;;30.34;28.77;99466.56;5071998;28;20191;-63
2022/09/14 06:58:34;;;;;;;8.43;3.20;;;;;;;30.49;28.44;99460.56;5068885;28;20739;-64
2022/09/14 07:01:04;;;;;;;8.70;3.00;;;;;;;30.54;27.71;99462.31;5055131;28;20251;-64
2022/09/14 07:03:34;;;;;;;8.50;3.27;;;;;;;30.40;27.62;99456.22;5047575;28;20193;-62
2022/09/14 07:06:05;;;;;;;7.43;3.47;;;;;;;30.09;27.98;99461.88;5046822;28;20647;-64
2022/09/14 07:08:32;;;;;;;7.20;3.60;;;;;;;29.90;28.51;99460.63;5045803;28;20339;-64
2022/09/14 07:10:59;;;;;;;6.50;3.50;;;;;;;29.69;28.94;99460.47;5046519;28;20196;-64
2022/09/14 07:13:27;;;;;;;6.83;3.90;;;;;;;28.87;30.38;99456.88;5046495;28;20263;-64
2022/09/14 07:15:54;;;;;;;11.17;3.50;;;;;;;29.17;29.96;99456.03;5047702;28;20188;-67
2022/09/14 07:18:21;;;;;;;5.93;3.60;;;;;;;29.35;30.20;99454.13;5048670;28;20684;-65
2022/09/14 07:20:50;;;;;;;5.90;4.07;;;;;;;29.69;30.62;99444.06;5063962;28;20200;-64
2022/09/14 07:23:16;;;;;;;5.90;3.23;;;;;;;30.03;30.03;99452.25;5069713;28;20192;-63
2022/09/14 07:25:43;;;;;;;7.67;4.07;;;;;;;30.11;29.29;99443.19;5071580;28;20208;-68
2022/09/14 07:28:10;;;;;;;8.27;3.30;;;;;;;30.20;28.79;99446.75;5055273;28;20703;-68
2022/09/14 07:30:37;;;;;;;3.80;2.93;;;;;;;30.04;28.89;99444.84;5052139;28;20196;-69
2022/09/14 07:33:05;;;;;;;6.07;3.53;;;;;;;30.21;29.16;99440.13;5052103;28;20200;-69
2022/09/14 07:35:31;;;;;;;8.90;2.97;;;;;;;30.29;28.65;99433.06;5067306;28;20192;-72
2022/09/14 07:38:00;;;;;;;3.47;3.10;;;;;;;30.18;29.04;99432.59;5069827;28;20667;-70
2022/09/14 07:40:26;;;;;;;12.07;3.50;;;;;;;30.54;29.48;99423.94;5062392;28;20663;-71
2022/09/14 07:42:54;;;;;;;8.97;3.03;;;;;;;30.84;28.41;99428.34;5061360;28;20249;-68
2022/09/14 07:45:21;;;;;;;6.43;3.20;;;;;;;30.98;27.37;99421.50;5064501;28;20200;-71
2022/09/14 07:47:48;;;;;;;11.30;3.30;;;;;;;31.03;27.98;99426.78;5062908;28;20626;-68
2022/09/14 07:50:15;;;;;;;11.33;3.00;;;;;;;31.26;27.83;99428.13;5056630;28;20220;-68
2022/09/14 07:52:41;;;;;;;5.83;3.37;;;;;;;31.41;27.56;99422.06;5059199;28;20195;-69
2022/09/14 07:55:12;;;;;;;9.97;3.37;;;;;;;31.47;27.07;99419.88;5058673;28;20197;-68
2022/09/14 07:57:39;;;;;;;5.47;2.53;;;;;;;31.63;27.00;99413.47;5059438;28;20272;-69
2022/09/14 08:00:07;;;;;;;7.87;2.97;;;;;;;31.47;27.13;99411.66;5060765;28;20629;-68
2022/09/14 08:02:34;;;;;;;7.67;2.97;;;;;;;31.21;27.25;99414.56;5057115;28;20200;-68
2022/09/14 08:05:01;;;;;;;8.63;3.03;;;;;;;31.22;27.30;99413.44;5061191;28;20278;-68
2022/09/14 08:07:27;;;;;;;2.60;2.40;;;;;;;31.34;26.34;99416.28;5061652;28;20550;-67
2022/09/14 08:09:54;;;;;;;12.43;3.03;;;;;;;31.43;27.13;99413.47;5062777;28;20707;-67
2022/09/14 08:12:23;;;;;;;5.77;2.77;;;;;;;31.65;27.53;99408.44;5064060;28;20184;-69
2022/09/14 08:14:51;;;;;;;10.03;2.70;;;;;;;31.76;26.23;99417.91;5060443;28;20193;-69
2022/09/14 08:17:20;;;;;;;5.80;3.20;;;;;;;31.94;26.17;99419.38;5057779;28;20614;-69
2022/09/14 08:19:47;;;;;;;7.40;2.80;;;;;;;32.17;27.13;99412.34;5059857;28;20196;-67
2022/09/14 08:22:14;;;;;;;4.00;2.20;;;;;;;32.39;26.97;99414.72;5069532;28;20573;-69
2022/09/14 08:24:41;;;;;;;5.73;2.67;;;;;;;32.46;25.10;99417.69;5050834;28;20618;-67
2022/09/14 08:27:09;;;;;;;4.10;2.40;;;;;;;31.66;25.31;99406.50;5050779;28;20196;-66
2022/09/14 08:29:38;;;;;;;7.33;3.03;;;;;;;31.02;26.56;99411.47;5069593;28;20298;-70
2022/09/14 08:32:05;;;;;;;8.40;2.50;;;;;;;30.83;26.93;99402.06;5071157;28;20227;-68
2022/09/14 08:34:33;;;;;;;4.53;2.47;;;;;;;31.18;26.77;99406.19;5062988;28;20212;-67
2022/09/14 08:37:00;;;;;;;3.17;2.40;;;;;;;31.38;27.00;99399.94;5072222;28;20199;-68
2022/09/14 08:39:26;;;;;;;5.73;2.50;;;;;;;31.63;26.05;99397.00;5071456;28;20204;-68
2022/09/14 08:41:55;;;;;;;2.37;2.17;;;;;;;31.75;26.29;99408.03;5072107;28;20200;-68
2022/09/14 08:44:26;;;;;;;5.17;2.27;;;;;;;31.93;25.63;99401.25;5064489;28;20201;-67
2022/09/14 08:46:59;;;;;;;4.17;2.40;;;;;;;32.14;26.31;99395.72;5051513;28;20184;-68
2022/09/14 08:49:39;;;;;;;5.23;2.30;;;;;;;32.07;26.51;99384.47;5051828;28;20255;-67
2022/09/14 08:52:09;;;;;;;5.97;3.03;;;;;;;32.21;24.49;99395.97;5050939;28;20271;-68
2022/09/14 08:54:37;;;;;;;15.47;13.97;;;;;;;32.24;26.20;99401.59;5051253;28;20262;-68
2022/09/14 08:57:12;;;;;;;17.30;4.07;;;;;;;32.34;24.33;99395.66;5052937;28;20292;-69
2022/09/14 08:59:49;;;;;;;7.37;5.60;;;;;;;32.32;25.58;99388.91;5054055;28;20192;-69
2022/09/14 09:02:32;;;;;;;5.80;4.00;;;;;;;32.18;25.46;99386.44;5051000;28;20189;-68
2022/09/14 09:05:07;;;;;;;12.77;2.30;;;;;;;32.44;24.30;99383.44;5051212;28;20189;-68
2022/09/14 09:07:39;;;;;;;4.60;1.60;;;;;;;32.03;23.64;99384.34;5051054;28;20647;-68
2022/09/14 09:10:08;;;;;;;2.83;1.80;;;;;;;31.04;25.04;99379.00;5051482;28;20228;-68
2022/09/14 09:12:38;;;;;;;3.47;1.77;;;;;;;31.43;25.12;99375.84;5059216;28;20197;-68
2022/09/14 09:15:15;;;;;;;2.57;1.93;;;;;;;31.26;24.88;99367.72;5058672;28;20628;-68
2022/09/14 09:17:48;;;;;;;5.90;1.57;;;;;;;31.36;25.43;99364.56;5055305;28;20275;-69
2022/09/14 09:20:19;;;;;;;6.93;1.93;;;;;;;30.95;25.14;99361.78;5064478;28;20207;-69
2022/09/14 09:22:50;;;;;;;5.43;1.97;;;;;;;31.22;26.15;99353.03;5074736;28;20301;-70
2022/09/14 09:25:22;;;;;;;2.73;1.80;;;;;;;31.42;25.81;99357.75;5073985;28;20207;-69
2022/09/14 09:27:49;;;;;;;5.53;1.97;;;;;;;31.25;25.56;99355.16;5074456;28;20196;-68
2022/09/14 09:30:17;;;;;;;3.77;1.97;;;;;;;31.51;25.54;99343.94;5074490;28;20269;-67
2022/09/14 09:32:45;;;;;;;2.60;1.70;;;;;;;31.55;25.34;99348.44;5074156;28;20693;-68
2022/09/14 09:35:17;;;;;;;2.90;1.77;;;;;;;31.63;24.82;99339.31;5073760;28;20664;-67
2022/09/14 09:37:43;;;;;;;2.87;1.73;;;;;;;31.39;26.69;99338.41;5074062;28;20799;-71
2022/09/14 09:40:15;;;;;;;5.83;1.47;;;;;;;31.43;25.40;99342.88;5073746;28;20681;-67
2022/09/14 09:43:04;;;;;;;3.03;1.50;;;;;;;31.59;24.97;99335.63;5073462;28;20196;-68
2022/09/14 09:45:47;;;;;;;2.87;1.47;;;;;;;31.19;26.02;99329.00;5066612;28;20192;-68
2022/09/14 09:48:17;;;;;;;1.70;1.60;;;;;;;31.26;25.79;99326.56;5057226;28;20193;-68
2022/09/14 09:50:50;;;;;;;3.17;1.60;;;;;;;31.40;25.26;99327.06;5073026;28;20212;-70
2022/09/14 09:53:21;;;;;;;12.37;2.13;;;;;;;31.37;26.38;99329.69;5068029;28;20180;-67
2022/09/14 09:55:50;;;;;;;1.60;1.30;;;;;;;31.40;25.16;99332.56;5052813;28;20284;-69
2022/09/14 09:58:22;;;;;;;1.50;1.40;;;;;;;31.48;26.21;99328.94;5051671;28;20565;-69
2022/09/14 10:01:01;;;;;;;1.30;1.30;;;;;;;31.68;25.51;99328.09;5052026;28;20275;-68
2022/09/14 10:03:35;;;;;;;3.37;1.50;;;;;;;31.75;26.05;99325.59;5070075;28;20221;-71
2022/09/14 10:06:07;;;;;;;2.07;1.27;;;;;;;31.80;25.33;99308.94;5068657;28;20192;-69
2022/09/14 10:08:41;;;;;;;6.93;1.90;;;;;;;31.84;25.15;99304.38;5057843;28;20303;-69
2022/09/14 10:11:29;;;;;;;1.63;1.53;;;;;;;31.52;25.83;99307.91;5061071;28;20226;-69
2022/09/14 10:14:31;;;;;;;2.27;1.80;;;;;;;31.24;25.42;99290.38;5068279;28;20284;-72
2022/09/14 10:17:17;;;;;;;2.20;2.00;;;;;;;31.40;25.86;99313.34;5042922;28;20208;-73
2022/09/14 10:19:50;;;;;;;6.83;2.50;;;;;;;31.46;25.98;99309.25;5052333;28;20694;-69
2022/09/14 10:22:33;;;;;;;5.17;2.10;;;;;;;30.80;25.65;99302.00;5064524;28;20277;-69
2022/09/14 10:25:02;;;;;;;2.00;1.73;;;;;;;30.86;26.17;99280.69;5048036;28;20207;-71
2022/09/14 10:27:47;;;;;;;2.83;1.57;;;;;;;31.33;25.98;99304.03;5053311;28;20258;-71
2022/09/14 10:30:17;;;;;;;2.90;1.50;;;;;;;31.43;25.73;99298.94;5072524;28;20238;-66
2022/09/14 10:32:49;;;;;;;5.43;1.27;;;;;;;31.41;24.75;99303.97;5072715;28;20273;-69
2022/09/14 10:35:17;;;;;;;2.60;1.60;;;;;;;31.45;24.81;99315.09;5058266;28;20254;-68
2022/09/14 10:38:07;;;;;;;1.50;1.40;;;;;;;31.61;24.75;99305.84;5053654;28;20205;-68
2022/09/14 10:40:38;;;;;;;2.20;1.73;;;;;;;31.47;25.18;99302.63;5053019;28;20189;-69
2022/09/14 10:43:13;;;;;;;5.90;1.60;;;;;;;31.39;26.33;99292.50;5052821;28;20189;-69
2022/09/14 10:45:45;;;;;;;1.60;1.50;;;;;;;31.32;26.86;99285.97;5053190;28;20189;-68
2022/09/14 10:48:26;;;;;;;2.03;1.43;;;;;;;31.37;27.01;99286.56;5052263;28;20714;-68
2022/09/14 10:51:01;;;;;;;1.83;1.60;;;;;;;31.42;25.98;99280.88;5050038;28;20263;-67
2022/09/14 10:53:41;;;;;;;1.47;1.43;;;;;;;31.32;25.77;99277.75;5061112;28;20253;-69
2022/09/14 10:56:14;;;;;;;2.33;1.40;;;;;;;31.28;26.27;99274.84;5066918;28;20191;-69
2022/09/14 10:59:14;;;;;;;4.10;1.93;;;;;;;31.21;27.22;99274.56;5064660;28;20214;-68
2022/09/14 11:02:05;;;;;;;1.50;1.40;;;;;;;31.09;26.14;99268.22;5050706;28;20198;-68
2022/09/14 11:04:49;;;;;;;3.33;1.20;;;;;;;30.96;26.87;99266.56;5070527;28;20308;-69
2022/09/14 11:07:26;;;;;;;1.50;1.50;;;;;;;31.00;27.04;99273.78;5070538;28;20233;-68
2022/09/14 11:10:02;;;;;;;2.37;2.17;;;;;;;31.00;27.35;99256.50;5072079;28;20285;-68
2022/09/14 11:12:39;;;;;;;4.17;1.80;;;;;;;31.00;25.89;99262.81;5071963;28;20196;-67
2022/09/14 11:15:18;;;;;;;13.50;1.97;;;;;;;31.02;29.16;99244.06;5071972;28;20184;-71
2022/09/14 11:18:03;;;;;;;3.53;2.00;;;;;;;31.07;28.25;99252.06;5070167;28;20190;-70
2022/09/14 11:20:43;;;;;;;2.03;1.50;;;;;;;30.83;26.25;99256.66;5056493;28;20652;-69
2022/09/14 11:23:26;;;;;;;4.90;1.90;;;;;;;30.60;27.44;99258.06;5046854;28;20188;-69
2022/09/14 11:25:56;;;;;;;3.90;1.97;;;;;;;30.72;27.86;99245.28;5046794;28;20698;-66
2022/09/14 11:28:27;;;;;;;1.93;1.80;;;;;;;30.82;26.38;99246.81;5046352;28;20192;-71
2022/09/14 11:31:00;;;;;;;2.40;1.60;;;;;;;30.72;26.83;99245.28;5048954;28;20246;-71
2022/09/14 11:33:32;;;;;;;1.57;1.33;;;;;;;30.85;26.68;99233.22;5046165;28;20195;-68
2022/09/14 11:36:05;;;;;;;6.37;1.43;;;;;;;30.75;26.88;99214.44;5049885;28;20203;-69
2022/09/14 11:38:36;;;;;;;2.17;1.50;;;;;;;31.07;27.25;99227.38;5048413;28;20607;-67
2022/09/14 11:41:15;;;;;;;1.67;1.57;;;;;;;30.87;26.13;99230.94;5048607;28;20546;-68
2022/09/14 11:43:49;;;;;;;1.80;1.70;;;;;;;31.14;25.74;99224.91;5045728;28;20188;-69
2022/09/14 11:46:20;;;;;;;3.20;1.70;;;;;;;31.26;26.76;99216.75;5044950;28;20612;-69